Time;durP1;ratioP1;P1;durP2;ratioP2;P2;SDS_P1;SDS_P2;PMS_P1;PMS_P2;Temp;Humidity;BMP_temperature;BMP_pressure;BME280_temperature;BME280_humidity;BME280_pressure;Samples;Min_cycle;Max_cycle;Signal;HPM_P1;HPM_P2
2021/07/01 00:01:58;;;;;;;2.78;1.25;;;15.80;84.00;;;;;;10153620;28;20044;-59
2021/07/01 00:06:48;;;;;;;2.13;1.52;;;15.70;83.90;;;;;;10154455;28;20054;-59
2021/07/01 00:11:39;;;;;;;2.05;1.15;;;15.70;84.20;;;;;;10153961;28;20043;-55
2021/07/01 00:16:29;;;;;;;2.92;1.27;;;15.70;84.30;;;;;;10162242;28;20398;-56
2021/07/01 00:21:20;;;;;;;2.47;1.50;;;15.60;84.50;;;;;;10156379;28;20501;-63
2021/07/01 00:26:11;;;;;;;1.30;1.15;;;15.60;84.60;;;;;;10136591;28;20024;-58
2021/07/01 00:31:01;;;;;;;2.08;1.33;;;15.70;85.20;;;;;;10151849;28;20574;-56
2021/07/01 00:35:52;;;;;;;2.05;1.33;;;15.70;84.60;;;;;;10157870;28;20058;-58
2021/07/01 00:40:43;;;;;;;2.10;1.35;;;15.70;84.70;;;;;;10158626;28;20051;-57
2021/07/01 00:45:33;;;;;;;2.05;1.50;;;15.70;84.80;;;;;;10137507;28;20035;-58
2021/07/01 00:50:25;;;;;;;1.92;1.23;;;15.80;84.80;;;;;;10151975;28;20468;-59
2021/07/01 00:55:16;;;;;;;1.92;1.33;;;15.70;84.80;;;;;;10151707;28;20028;-58
2021/07/01 01:00:24;;;;;;;2.10;1.65;;;15.80;84.80;;;;;;10158494;28;20048;-56
2021/07/01 01:05:16;;;;;;;2.25;1.30;;;15.80;84.80;;;;;;10158982;28;20655;-57
2021/07/01 01:10:07;;;;;;;2.35;1.50;;;15.80;84.80;;;;;;10149992;28;20107;-55
2021/07/01 01:14:58;;;;;;;2.13;1.35;;;15.80;84.90;;;;;;10146646;28;20062;-57
2021/07/01 01:19:48;;;;;;;2.15;1.30;;;15.80;85.20;;;;;;10159038;28;20315;-58
2021/07/01 01:24:39;;;;;;;2.75;1.17;;;15.70;85.20;;;;;;10157213;28;20028;-55
2021/07/01 01:29:29;;;;;;;2.15;1.25;;;15.80;85.30;;;;;;10152519;28;20043;-58
2021/07/01 01:34:20;;;;;;;3.90;1.58;;;15.60;85.50;;;;;;10148210;28;20813;-57
2021/07/01 01:39:11;;;;;;;1.75;1.38;;;15.50;86.00;;;;;;10160214;28;20067;-58
2021/07/01 01:44:02;;;;;;;2.22;1.40;;;15.60;85.70;;;;;;10164882;28;20047;-56
2021/07/01 01:48:54;;;;;;;1.85;1.48;;;15.70;85.50;;;;;;10163588;28;20072;-59
2021/07/01 01:53:44;;;;;;;3.47;1.45;;;15.70;85.70;;;;;;10161438;28;20263;-59
2021/07/01 01:58:35;;;;;;;2.00;1.13;;;15.80;85.60;;;;;;10160305;28;20046;-58
2021/07/01 02:03:26;;;;;;;2.58;1.50;;;15.80;85.90;;;;;;10160270;28;20513;-59
2021/07/01 02:08:16;;;;;;;2.33;1.50;;;15.80;85.90;;;;;;10159198;28;20040;-58
2021/07/01 02:13:11;;;;;;;2.33;1.30;;;15.90;85.50;;;;;;10143434;28;20032;-58
2021/07/01 02:18:02;;;;;;;1.88;1.50;;;15.90;85.80;;;;;;10158558;28;20223;-58
2021/07/01 02:22:52;;;;;;;2.55;1.50;;;15.90;86.10;;;;;;10167162;28;20028;-58
2021/07/01 02:27:44;;;;;;;2.00;1.58;;;15.90;86.20;;;;;;10167143;28;20518;-57
2021/07/01 02:32:35;;;;;;;2.00;1.38;;;15.90;86.30;;;;;;10165528;28;20035;-58
2021/07/01 02:37:26;;;;;;;2.72;1.95;;;15.90;86.40;;;;;;10147087;28;20226;-58
2021/07/01 02:42:17;;;;;;;2.28;1.48;;;15.90;86.50;;;;;;10153844;28;20024;-58
2021/07/01 02:47:08;;;;;;;3.97;1.80;;;15.80;86.50;;;;;;10161675;28;20441;-59
2021/07/01 02:51:58;;;;;;;2.30;1.48;;;15.80;86.80;;;;;;10162468;28;20094;-58
2021/07/01 02:56:49;;;;;;;3.17;1.50;;;15.80;87.00;;;;;;10160000;28;20133;-57
2021/07/01 03:01:44;;;;;;;2.35;1.35;;;15.90;86.90;;;;;;10160215;28;20098;-56
2021/07/01 03:06:34;;;;;;;2.97;1.90;;;15.90;86.60;;;;;;10159408;28;20038;-55
2021/07/01 03:11:26;;;;;;;3.13;1.70;;;15.80;86.90;;;;;;10164504;28;20054;-56
2021/07/01 03:16:19;;;;;;;3.63;1.80;;;15.90;86.90;;;;;;10145592;28;20024;-58
2021/07/01 03:21:10;;;;;;;1.52;1.13;;;15.90;86.90;;;;;;10157167;28;20032;-58
2021/07/01 03:26:01;;;;;;;2.30;2.03;;;15.90;86.90;;;;;;10157642;28;20028;-58
2021/07/01 03:30:51;;;;;;;2.80;1.70;;;16.00;86.70;;;;;;10165686;28;20081;-57
2021/07/01 03:35:42;;;;;;;3.22;1.95;;;16.00;86.70;;;;;;10161774;28;20100;-56
2021/07/01 03:40:33;;;;;;;3.63;1.70;;;16.00;86.90;;;;;;10158770;28;20084;-62
2021/07/01 03:45:23;;;;;;;2.97;1.85;;;16.00;87.10;;;;;;10138368;28;20047;-58
2021/07/01 03:50:14;;;;;;;3.83;1.90;;;15.90;87.40;;;;;;10157343;28;20040;-56
2021/07/01 03:55:05;;;;;;;3.13;1.90;;;16.00;87.20;;;;;;10162504;28;20511;-56
2021/07/01 03:59:56;;;;;;;3.05;1.73;;;16.00;87.40;;;;;;10156735;28;20043;-59
2021/07/01 04:04:47;;;;;;;3.10;2.25;;;16.00;87.50;;;;;;10163164;28;20261;-59
2021/07/01 04:09:38;;;;;;;2.50;1.52;;;16.00;87.20;;;;;;10154007;28;20081;-56
2021/07/01 04:14:29;;;;;;;4.03;2.00;;;16.00;87.40;;;;;;10163198;28;20107;-58
2021/07/01 04:19:19;;;;;;;3.47;1.55;;;16.00;87.60;;;;;;10160177;28;20457;-57
2021/07/01 04:24:10;;;;;;;3.15;1.90;;;16.00;87.50;;;;;;10154544;28;20024;-57
2021/07/01 04:29:01;;;;;;;3.25;2.38;;;16.00;87.60;;;;;;10148786;28;20032;-57
2021/07/01 04:33:51;;;;;;;2.50;1.58;;;16.10;87.30;;;;;;10153563;28;20186;-56
2021/07/01 04:38:43;;;;;;;3.65;1.65;;;16.10;87.40;;;;;;10142648;28;20545;-55
2021/07/01 04:43:33;;;;;;;3.47;1.80;;;16.10;87.50;;;;;;10154265;28;20028;-58
2021/07/01 04:48:24;;;;;;;3.35;1.98;;;16.00;87.80;;;;;;10149455;28;20029;-58
2021/07/01 04:53:15;;;;;;;3.92;2.22;;;15.90;88.10;;;;;;10152701;28;20101;-57
2021/07/01 04:58:05;;;;;;;1.77;1.48;;;16.00;87.90;;;;;;10145786;28;20437;-58
2021/07/01 05:02:56;;;;;;;2.97;1.90;;;16.00;87.70;;;;;;10159103;28;20572;-58
2021/07/01 05:07:47;;;;;;;3.03;1.88;;;16.00;87.90;;;;;;10149609;28;20200;-57
2021/07/01 05:12:38;;;;;;;3.42;2.10;;;16.10;87.90;;;;;;10146425;28;20243;-59
2021/07/01 05:17:28;;;;;;;5.35;2.15;;;16.20;87.40;;;;;;10160738;28;20240;-57
2021/07/01 05:22:19;;;;;;;2.42;2.05;;;16.20;87.50;;;;;;10157252;28;20283;-58
2021/07/01 05:27:10;;;;;;;3.83;2.28;;;16.20;87.70;;;;;;10153950;28;20062;-58
2021/07/01 05:32:00;;;;;;;2.47;2.05;;;16.20;87.50;;;;;;10152803;28;20035;-58
2021/07/01 05:36:51;;;;;;;2.28;1.95;;;16.20;87.50;;;;;;10154496;28;20143;-56
2021/07/01 05:41:42;;;;;;;3.22;2.58;;;16.30;87.30;;;;;;10159416;28;20111;-56
2021/07/01 05:46:32;;;;;;;4.95;2.25;;;16.40;87.00;;;;;;10154520;28;20028;-57
2021/07/01 05:51:24;;;;;;;2.70;2.05;;;16.40;86.80;;;;;;10143350;28;20044;-59
2021/07/01 05:56:14;;;;;;;5.07;2.30;;;16.40;87.10;;;;;;10151196;28;20406;-57
2021/07/01 06:01:05;;;;;;;4.60;2.47;;;16.50;87.10;;;;;;10150721;28;20048;-58
2021/07/01 06:06:02;;;;;;;3.88;2.40;;;16.60;86.90;;;;;;10158807;28;20491;-58
2021/07/01 06:10:54;;;;;;;3.75;2.15;;;16.50;87.00;;;;;;10154280;28;20055;-59
2021/07/01 06:15:45;;;;;;;6.88;2.63;;;16.40;87.20;;;;;;10150106;28;20038;-56
2021/07/01 06:20:36;;;;;;;4.32;2.50;;;16.50;87.20;;;;;;10148257;28;20036;-57
2021/07/01 06:25:27;;;;;;;3.25;2.33;;;16.70;87.10;;;;;;10158377;28;20024;-59
2021/07/01 06:30:20;;;;;;;5.57;2.20;;;16.60;87.50;;;;;;10155421;28;20453;-58
2021/07/01 06:35:15;;;;;;;3.63;2.65;;;16.70;87.40;;;;;;10136585;28;20040;-55
2021/07/01 06:40:09;;;;;;;4.88;2.40;;;17.10;86.90;;;;;;10152372;28;20037;-55
2021/07/01 06:45:03;;;;;;;6.13;2.22;;;17.20;86.30;;;;;;10158143;28;20036;-58
2021/07/01 06:49:54;;;;;;;4.35;1.88;;;17.30;86.40;;;;;;10164131;28;20321;-57
2021/07/01 06:54:45;;;;;;;2.45;1.50;;;17.40;86.30;;;;;;10159516;28;20462;-56
2021/07/01 06:59:36;;;;;;;3.03;2.17;;;17.30;86.30;;;;;;10153900;28;20055;-53
2021/07/01 07:04:28;;;;;;;4.25;1.83;;;17.40;86.30;;;;;;10152825;28;20571;-57
2021/07/01 07:09:19;;;;;;;1.95;1.30;;;17.30;85.90;;;;;;10165004;28;20027;-57
2021/07/01 07:14:11;;;;;;;2.45;1.55;;;17.40;85.70;;;;;;10161868;28;20447;-57
2021/07/01 07:19:03;;;;;;;3.03;2.05;;;17.40;85.30;;;;;;10157115;28;20048;-56
2021/07/01 07:23:55;;;;;;;2.63;1.73;;;17.40;85.60;;;;;;10151469;28;20032;-58
2021/07/01 07:28:54;;;;;;;2.92;1.80;;;17.50;85.30;;;;;;10161425;28;20517;-56
2021/07/01 07:33:45;;;;;;;2.38;1.48;;;17.30;85.00;;;;;;10162502;28;20061;-58
2021/07/01 07:38:36;;;;;;;3.53;1.80;;;17.20;85.30;;;;;;10158795;28;20355;-59
2021/07/01 07:43:27;;;;;;;3.22;1.60;;;17.30;85.10;;;;;;10158343;28;20028;-58
2021/07/01 07:48:19;;;;;;;1.73;1.38;;;17.30;84.70;;;;;;10139690;28;20036;-57
2021/07/01 07:53:14;;;;;;;2.38;1.80;;;17.30;84.70;;;;;;10153768;28;20143;-57
2021/07/01 07:58:08;;;;;;;4.75;1.67;;;17.30;84.20;;;;;;10162178;28;20117;-58
2021/07/01 08:03:06;;;;;;;5.33;2.20;;;17.30;84.20;;;;;;10154077;28;20032;-56
2021/07/01 08:07:58;;;;;;;2.97;1.98;;;17.30;84.20;;;;;;10153656;28;20403;-58
2021/07/01 08:12:50;;;;;;;1.92;1.55;;;17.30;84.10;;;;;;10156667;28;20044;-57
2021/07/01 08:17:42;;;;;;;1.85;1.60;;;17.50;83.60;;;;;;10160037;28;20036;-58
2021/07/01 08:22:33;;;;;;;3.90;1.98;;;17.60;83.20;;;;;;10154645;28;20040;-58
2021/07/01 08:27:24;;;;;;;2.53;1.60;;;17.60;83.10;;;;;;10137644;28;20055;-56
2021/07/01 08:32:16;;;;;;;2.20;1.63;;;17.60;83.20;;;;;;10146502;28;20364;-60
2021/07/01 08:37:08;;;;;;;2.45;1.70;;;17.50;83.00;;;;;;10161321;28;20193;-59
2021/07/01 08:42:02;;;;;;;2.30;1.40;;;17.40;83.20;;;;;;10157198;28;20088;-58
2021/07/01 08:47:20;;;;;;;2.38;1.58;;;17.50;82.80;;;;;;10153733;28;20044;-58
2021/07/01 08:52:14;;;;;;;2.03;1.20;;;17.60;82.20;;;;;;10140158;28;20123;-58
2021/07/01 08:57:12;;;;;;;3.60;1.45;;;17.70;81.60;;;;;;10133289;28;20518;-58
2021/07/01 09:02:06;;;;;;;2.40;1.77;;;18.10;81.10;;;;;;10157698;28;20179;-57
2021/07/01 09:07:00;;;;;;;;;;;18.40;80.10;;;;;;10154850;28;20639;-59
2021/07/01 09:11:52;;;;;;;2.33;1.42;;;18.40;79.60;;;;;;10141663;28;19904;-59
2021/07/01 09:16:43;;;;;;;1.17;1.00;;;18.50;79.80;;;;;;10149842;28;20403;-57
2021/07/01 09:21:34;;;;;;;1.95;1.38;;;18.40;79.70;;;;;;10155386;28;20528;-58
2021/07/01 09:26:26;;;;;;;2.47;2.00;;;18.40;79.70;;;;;;10155131;28;20047;-58
2021/07/01 09:31:20;;;;;;;2.80;2.03;;;18.60;78.80;;;;;;10150237;28;20242;-58
2021/07/01 09:36:12;;;;;;;3.67;1.80;;;18.80;77.60;;;;;;10148204;28;20498;-57
2021/07/01 09:41:02;;;;;;;2.50;1.70;;;18.90;76.90;;;;;;10160363;28;20576;-60
2021/07/01 09:45:57;;;;;;;3.05;1.92;;;19.10;76.20;;;;;;10157345;28;20474;-58
2021/07/01 09:50:49;;;;;;;2.67;2.15;;;19.50;74.90;;;;;;10153259;28;20028;-57
2021/07/01 09:55:42;;;;;;;2.78;1.80;;;19.90;73.60;;;;;;10148603;28;20524;-58
2021/07/01 10:00:33;;;;;;;2.83;2.05;;;19.80;73.80;;;;;;10144101;28;20135;-58
2021/07/01 10:05:28;;;;;;;3.05;2.05;;;19.50;72.60;;;;;;10163269;28;20585;-59
2021/07/01 10:10:20;;;;;;;2.55;2.00;;;19.30;70.90;;;;;;10160307;28;20526;-58
2021/07/01 10:15:30;;;;;;;2.72;1.92;;;19.60;70.60;;;;;;10152489;28;20060;-58
2021/07/01 10:20:32;;;;;;;2.95;1.90;;;20.00;68.80;;;;;;10162653;28;20043;-57
2021/07/01 10:25:30;;;;;;;2.83;1.90;;;19.90;69.20;;;;;;10166195;28;20024;-58
2021/07/01 10:30:24;;;;;;;2.80;2.00;;;19.90;68.70;;;;;;10146214;28;20032;-57
2021/07/01 10:35:35;;;;;;;3.78;2.60;;;19.60;68.90;;;;;;10159647;28;20028;-60
2021/07/01 10:40:26;;;;;;;5.95;2.20;;;19.10;68.10;;;;;;10162430;28;20037;-61
2021/07/01 10:45:17;;;;;;;2.55;2.10;;;19.00;69.00;;;;;;10167873;28;20024;-59
2021/07/01 10:50:20;;;;;;;4.53;2.47;;;18.80;68.70;;;;;;10164946;28;20498;-54
2021/07/01 10:55:13;;;;;;;3.53;2.30;;;18.70;68.40;;;;;;10158048;28;20119;-56
2021/07/01 11:00:04;;;;;;;5.40;2.50;;;18.60;68.70;;;;;;10154015;28;20050;-59
2021/07/01 11:05:00;;;;;;;2.95;2.00;;;18.80;68.50;;;;;;10162563;28;20067;-58
2021/07/01 11:09:55;;;;;;;5.95;2.05;;;18.90;68.20;;;;;;10164801;28;20046;-57
2021/07/01 11:14:48;;;;;;;3.60;2.10;;;18.90;68.10;;;;;;10158373;28;20164;-57
2021/07/01 11:19:44;;;;;;;3.60;2.00;;;18.90;68.20;;;;;;10156622;28;20743;-59
2021/07/01 11:24:45;;;;;;;5.38;2.30;;;19.00;68.10;;;;;;10153838;28;20024;-58
2021/07/01 11:29:43;;;;;;;3.55;2.28;;;19.00;67.80;;;;;;10163786;28;20043;-59
2021/07/01 11:34:48;;;;;;;2.08;1.52;;;19.30;67.80;;;;;;10160929;28;20044;-58
2021/07/01 11:39:40;;;;;;;3.80;2.22;;;19.50;67.40;;;;;;10157765;28;20051;-58
2021/07/01 11:44:32;;;;;;;2.85;2.05;;;19.60;67.30;;;;;;10156421;28;20454;-58
2021/07/01 11:49:24;;;;;;;3.83;2.03;;;19.30;67.60;;;;;;10158167;28;20498;-59
2021/07/01 11:54:18;;;;;;;2.53;2.03;;;19.20;68.00;;;;;;10162239;28;20101;-59
2021/07/01 11:59:09;;;;;;;2.72;1.90;;;19.30;67.70;;;;;;10156403;28;20047;-59
2021/07/01 12:04:00;;;;;;;3.55;2.15;;;19.80;66.80;;;;;;10154110;28;20119;-58
2021/07/01 12:08:51;;;;;;;2.33;1.90;;;20.40;66.20;;;;;;10136790;28;20044;-59
2021/07/01 12:13:42;;;;;;;2.65;1.83;;;20.40;66.00;;;;;;10162967;28;20020;-59
2021/07/01 12:18:56;;;;;;;2.63;1.80;;;20.20;66.00;;;;;;10143498;28;20560;-58
2021/07/01 12:24:03;;;;;;;2.53;1.90;;;19.80;66.10;;;;;;10159391;28;20089;-59
2021/07/01 12:28:53;;;;;;;2.60;1.67;;;19.70;66.00;;;;;;10129474;28;20067;-56
2021/07/01 12:34:20;;;;;;;2.00;1.60;;;19.60;66.20;;;;;;10159277;28;20075;-58
2021/07/01 12:39:13;;;;;;;5.20;2.15;;;19.70;65.30;;;;;;10144630;28;20576;-57
2021/07/01 12:44:04;;;;;;;2.33;1.63;;;19.60;65.50;;;;;;10157466;28;20028;-57
2021/07/01 12:48:55;;;;;;;4.45;2.00;;;19.50;65.40;;;;;;10156503;28;20509;-60
2021/07/01 12:53:45;;;;;;;3.83;1.85;;;19.50;65.40;;;;;;10155491;28;20111;-58
2021/07/01 12:58:36;;;;;;;2.78;2.05;;;19.90;64.80;;;;;;10145951;28;20104;-58
2021/07/01 13:03:27;;;;;;;2.85;1.70;;;20.00;64.60;;;;;;10147352;28;20024;-56
2021/07/01 13:08:39;;;;;;;3.53;1.98;;;20.20;64.50;;;;;;10158475;28;20446;-57
2021/07/01 13:13:30;;;;;;;3.17;1.80;;;20.30;64.30;;;;;;10156438;28;20530;-56
2021/07/01 13:18:22;;;;;;;3.75;2.58;;;20.40;64.30;;;;;;10165943;28;20040;-56
2021/07/01 13:23:19;;;;;;;4.35;2.00;;;20.40;64.50;;;;;;10159614;28;20101;-55
2021/07/01 13:28:10;;;;;;;3.63;2.08;;;19.90;64.90;;;;;;10168588;28;20513;-57
2021/07/01 13:33:08;;;;;;;2.50;1.95;;;19.70;65.10;;;;;;10154613;28;20067;-57
2021/07/01 13:38:00;;;;;;;2.72;1.70;;;19.70;64.80;;;;;;10175983;28;20046;-58
2021/07/01 13:42:53;;;;;;;3.53;2.47;;;19.60;64.80;;;;;;10172243;28;20475;-58
2021/07/01 13:47:45;;;;;;;2.58;1.95;;;19.50;64.80;;;;;;10166406;28;20034;-57
2021/07/01 13:52:36;;;;;;;2.17;1.65;;;19.40;65.20;;;;;;10161424;28;20031;-56
2021/07/01 13:57:30;;;;;;;2.92;1.88;;;19.20;65.50;;;;;;10157152;28;20129;-57
2021/07/01 14:02:21;;;;;;;2.33;2.05;;;19.20;65.80;;;;;;10163254;28;20054;-57
2021/07/01 14:07:12;;;;;;;3.92;2.38;;;19.10;66.00;;;;;;10165049;28;20498;-59
2021/07/01 14:12:03;;;;;;;6.97;1.90;;;19.10;65.90;;;;;;10161237;28;20086;-58
2021/07/01 14:16:54;;;;;;;2.78;1.50;;;19.10;66.50;;;;;;10159295;28;20462;-59
2021/07/01 14:21:49;;;;;;;3.53;2.00;;;19.20;65.90;;;;;;10150730;28;20059;-58
2021/07/01 14:26:48;;;;;;;3.25;2.13;;;19.30;65.50;;;;;;10167509;28;20032;-60
2021/07/01 14:31:40;;;;;;;2.15;1.73;;;19.30;65.70;;;;;;10162768;28;20115;-55
2021/07/01 14:36:37;;;;;;;4.50;2.22;;;19.20;65.70;;;;;;10144974;28;20179;-56
2021/07/01 14:41:33;;;;;;;4.18;1.85;;;19.30;65.70;;;;;;10153035;28;20036;-59
2021/07/01 14:46:30;;;;;;;2.70;1.83;;;19.40;65.30;;;;;;10166307;28;20035;-59
2021/07/01 14:51:26;;;;;;;3.80;2.25;;;19.60;65.20;;;;;;10161752;28;20502;-58
2021/07/01 14:56:49;;;;;;;4.55;2.65;;;19.70;65.00;;;;;;10161648;28;20093;-58
2021/07/01 15:01:55;;;;;;;3.33;2.10;;;20.00;64.30;;;;;;10158502;28;20442;-58
2021/07/01 15:06:45;;;;;;;3.08;1.83;;;20.20;64.40;;;;;;10166482;28;20380;-56
2021/07/01 15:11:43;;;;;;;3.08;2.00;;;20.00;64.40;;;;;;10162587;28;20023;-58
2021/07/01 15:16:33;;;;;;;2.80;2.20;;;19.90;64.20;;;;;;10146815;28;20036;-59
2021/07/01 15:21:24;;;;;;;3.38;1.83;;;19.80;64.30;;;;;;10157158;28;20043;-60
2021/07/01 15:26:15;;;;;;;3.65;2.00;;;19.90;64.10;;;;;;10158457;28;20426;-58
2021/07/01 15:31:05;;;;;;;3.60;1.80;;;19.90;63.90;;;;;;10166528;28;20127;-60
2021/07/01 15:35:58;;;;;;;4.20;2.65;;;20.10;63.30;;;;;;10159937;28;20100;-57
2021/07/01 15:40:48;;;;;;;2.20;1.80;;;20.20;62.80;;;;;;10155342;28;20047;-56
2021/07/01 15:45:40;;;;;;;2.67;1.90;;;20.30;63.20;;;;;;10153843;28;20024;-58
2021/07/01 15:50:31;;;;;;;11.85;2.30;;;20.30;63.10;;;;;;10162784;28;20047;-57
2021/07/01 15:55:22;;;;;;;3.50;1.90;;;20.30;63.10;;;;;;10158100;28;20340;-59
2021/07/01 16:00:13;;;;;;;5.32;1.90;;;20.10;63.70;;;;;;10147662;28;20044;-56
2021/07/01 16:05:04;;;;;;;3.08;2.10;;;20.10;63.50;;;;;;10146559;28;20020;-60
2021/07/01 16:09:55;;;;;;;4.32;1.75;;;20.30;63.00;;;;;;10160093;28;20024;-59
2021/07/01 16:14:45;;;;;;;2.50;1.48;;;20.70;62.60;;;;;;10163176;28;20378;-57
2021/07/01 16:19:36;;;;;;;4.57;2.60;;;21.00;61.80;;;;;;10160402;28;20040;-59
2021/07/01 16:24:31;;;;;;;3.78;1.88;;;20.70;62.50;;;;;;10157649;28;20191;-57
2021/07/01 16:29:25;;;;;;;5.93;2.28;;;20.50;63.10;;;;;;10142361;28;20028;-58
2021/07/01 16:34:16;;;;;;;2.28;1.45;;;20.30;63.30;;;;;;10153936;28;20512;-57
2021/07/01 16:39:07;;;;;;;3.42;2.25;;;20.20;63.30;;;;;;10158240;28;20054;-59
2021/07/01 16:43:59;;;;;;;3.78;2.08;;;20.20;63.00;;;;;;10138241;28;20044;-58
2021/07/01 16:48:58;;;;;;;4.00;2.20;;;20.20;62.90;;;;;;10129098;28;20067;-58
2021/07/01 16:53:49;;;;;;;2.50;1.85;;;20.40;62.50;;;;;;10157996;28;20020;-61
2021/07/01 16:58:45;;;;;;;4.22;2.08;;;20.40;62.40;;;;;;10161675;28;20321;-57
2021/07/01 17:03:36;;;;;;;3.78;2.55;;;20.50;62.80;;;;;;10160129;28;20035;-59
2021/07/01 17:08:35;;;;;;;3.22;1.75;;;24.50;56.90;;;;;;10154554;28;20039;-58
2021/07/01 17:13:29;;;;;;;2.60;1.80;;;26.20;52.60;;;;;;10150635;28;20023;-58
2021/07/01 17:18:21;;;;;;;2.40;1.80;;;23.60;57.60;;;;;;10153235;28;20063;-58
2021/07/01 17:23:12;;;;;;;4.38;2.33;;;22.10;61.00;;;;;;10165488;28;20111;-57
2021/07/01 17:28:04;;;;;;;3.60;2.30;;;21.30;62.00;;;;;;10155746;28;20571;-58
2021/07/01 17:32:56;;;;;;;4.18;3.05;;;20.70;62.60;;;;;;10151508;28;20119;-58
2021/07/01 17:37:46;;;;;;;3.00;2.30;;;20.60;62.60;;;;;;10155378;28;20036;-56
2021/07/01 17:42:37;;;;;;;4.38;2.80;;;22.90;59.30;;;;;;10162993;28;20032;-58
2021/07/01 17:47:28;;;;;;;4.75;3.28;;;26.30;53.80;;;;;;10140058;28;20356;-59
2021/07/01 17:52:18;;;;;;;3.85;2.72;;;27.40;52.40;;;;;;10152947;28;20039;-59
2021/07/01 17:57:09;;;;;;;3.30;2.58;;;27.80;52.60;;;;;;10150840;28;20185;-60
2021/07/01 18:02:00;;;;;;;3.17;2.20;;;27.20;53.70;;;;;;10166074;28;20635;-58
2021/07/01 18:06:51;;;;;;;4.68;2.83;;;26.80;53.80;;;;;;10154004;28;20032;-58
2021/07/01 18:11:41;;;;;;;5.38;2.42;;;24.70;56.80;;;;;;10160673;28;20540;-57
2021/07/01 18:16:32;;;;;;;4.13;2.42;;;23.50;58.30;;;;;;10138792;28;20581;-56
2021/07/01 18:21:23;;;;;;;5.55;2.50;;;22.50;59.60;;;;;;10160686;28;20039;-59
2021/07/01 18:26:15;;;;;;;4.72;2.65;;;22.20;58.60;;;;;;10168601;28;20092;-57
2021/07/01 18:31:06;;;;;;;3.30;2.50;;;21.50;59.60;;;;;;10160975;28;20024;-58
2021/07/01 18:35:57;;;;;;;4.90;2.55;;;21.20;59.60;;;;;;10149234;28;20426;-58
2021/07/01 18:40:47;;;;;;;4.80;2.92;;;20.90;59.80;;;;;;10167301;28;20486;-54
2021/07/01 18:45:41;;;;;;;3.58;2.40;;;20.60;60.10;;;;;;10174944;28;20107;-55
2021/07/01 18:50:33;;;;;;;7.28;3.53;;;20.40;60.40;;;;;;10167116;28;20084;-52
2021/07/01 18:55:25;;;;;;;12.45;6.80;;;20.30;60.70;;;;;;10167484;28;20039;-50
2021/07/01 19:00:16;;;;;;;14.30;5.82;;;20.10;61.10;;;;;;10168500;28;20068;-52
2021/07/01 19:05:07;;;;;;;4.78;3.25;;;20.00;61.20;;;;;;10166174;28;20094;-57
2021/07/01 19:09:58;;;;;;;6.53;3.22;;;19.90;61.40;;;;;;10165515;28;20035;-56
2021/07/01 19:14:49;;;;;;;6.65;3.13;;;19.90;61.80;;;;;;10161259;28;20498;-55
2021/07/01 19:19:40;;;;;;;5.15;2.83;;;19.90;62.00;;;;;;10159572;28;20024;-52
2021/07/01 19:24:32;;;;;;;5.50;3.42;;;19.80;62.30;;;;;;10164497;28;20343;-55
2021/07/01 19:29:23;;;;;;;6.43;3.22;;;19.70;62.60;;;;;;10163398;28;20579;-49
2021/07/01 19:34:15;;;;;;;5.85;2.90;;;19.60;62.90;;;;;;10148543;28;20028;-50
2021/07/01 19:39:05;;;;;;;9.98;4.40;;;19.60;63.20;;;;;;10157421;28;20036;-56
2021/07/01 19:43:57;;;;;;;8.80;4.20;;;19.50;63.20;;;;;;10163400;28;20179;-55
2021/07/01 19:48:49;;;;;;;4.35;2.63;;;19.50;63.60;;;;;;10163058;28;20024;-54
2021/07/01 19:53:39;;;;;;;7.25;3.10;;;19.40;63.70;;;;;;10153603;28;20421;-51
2021/07/01 19:58:35;;;;;;;5.60;3.50;;;19.40;64.00;;;;;;10162496;28;20059;-55
2021/07/01 20:03:26;;;;;;;4.90;2.55;;;19.30;64.20;;;;;;10156377;28;20136;-53
2021/07/01 20:08:17;;;;;;;5.85;3.22;;;19.40;64.80;;;;;;10152091;28;20047;-53
2021/07/01 20:13:08;;;;;;;7.18;4.53;;;19.30;64.30;;;;;;10166713;28;20396;-52
2021/07/01 20:17:59;;;;;;;4.97;2.92;;;19.30;64.50;;;;;;10166211;28;20802;-54
2021/07/01 20:22:49;;;;;;;6.85;3.60;;;19.30;64.70;;;;;;10168628;28;20085;-50
2021/07/01 20:27:40;;;;;;;8.70;4.20;;;19.30;64.90;;;;;;10150726;28;20036;-52
2021/07/01 20:32:31;;;;;;;6.75;2.80;;;19.20;65.10;;;;;;10167495;28;20097;-49
2021/07/01 20:37:22;;;;;;;5.93;3.90;;;19.10;65.50;;;;;;10165711;28;20027;-53
2021/07/01 20:42:13;;;;;;;5.80;3.60;;;19.10;65.70;;;;;;10158167;28;20482;-52
2021/07/01 20:47:04;;;;;;;7.00;3.33;;;19.10;65.80;;;;;;10164726;28;20125;-56
2021/07/01 20:51:55;;;;;;;5.80;3.72;;;19.00;66.00;;;;;;10169820;28;20238;-48
2021/07/01 20:56:46;;;;;;;5.97;4.18;;;18.90;66.30;;;;;;10163942;28;20059;-56
2021/07/01 21:01:36;;;;;;;6.00;3.30;;;19.00;66.50;;;;;;10164104;28;20044;-57
2021/07/01 21:06:30;;;;;;;6.45;3.75;;;19.00;66.70;;;;;;10168009;28;20032;-56
2021/07/01 21:11:21;;;;;;;7.45;4.35;;;18.90;67.00;;;;;;10168018;28;20194;-55
2021/07/01 21:16:14;;;;;;;6.18;4.47;;;18.80;67.10;;;;;;10170319;28;20051;-57
2021/07/01 21:21:05;;;;;;;6.25;3.95;;;18.70;67.50;;;;;;10160029;28;20539;-54
2021/07/01 21:25:58;;;;;;;6.18;3.88;;;18.60;67.70;;;;;;10161125;28;20851;-56
2021/07/01 21:30:48;;;;;;;8.73;4.03;;;18.60;68.00;;;;;;10155249;28;20109;-57
2021/07/01 21:35:40;;;;;;;7.95;3.85;;;18.50;68.10;;;;;;10154071;28;20510;-57
2021/07/01 21:40:31;;;;;;;6.03;3.20;;;18.40;68.40;;;;;;10142883;28;20079;-54
2021/07/01 21:45:26;;;;;;;9.23;4.57;;;18.40;68.60;;;;;;10155938;28;20125;-57
2021/07/01 21:50:17;;;;;;;5.17;3.43;;;18.40;69.10;;;;;;10152811;28;20086;-55
2021/07/01 21:55:10;;;;;;;5.80;3.15;;;18.30;69.20;;;;;;10152970;28;20494;-55
2021/07/01 22:00:09;;;;;;;4.72;2.92;;;18.30;69.60;;;;;;10154218;28;20044;-54
2021/07/01 22:05:00;;;;;;;5.95;3.30;;;18.20;69.70;;;;;;10158194;28;20411;-57
2021/07/01 22:09:51;;;;;;;4.30;2.60;;;18.30;69.90;;;;;;10154557;28;20036;-59
2021/07/01 22:20:07;;;;;;;6.10;3.70;;;18.20;70.40;;;;;;10110444;28;20452;-57
2021/07/01 22:24:58;;;;;;;5.95;4.10;;;18.10;70.70;;;;;;10162943;28;20394;-57
2021/07/01 22:29:49;;;;;;;6.03;3.45;;;18.00;71.10;;;;;;10155857;28;20267;-59
2021/07/01 22:34:40;;;;;;;5.90;4.07;;;18.00;71.50;;;;;;10155357;28;20039;-56
2021/07/01 22:39:31;;;;;;;8.27;3.97;;;18.00;71.60;;;;;;10159074;28;20044;-62
2021/07/01 22:44:21;;;;;;;3.92;3.33;;;18.00;72.10;;;;;;10166578;28;20028;-58
2021/07/01 22:49:12;;;;;;;4.43;3.38;;;17.90;72.50;;;;;;10162409;28;20266;-58
2021/07/01 22:54:03;;;;;;;7.97;3.38;;;17.90;72.80;;;;;;10158272;28;20032;-58
2021/07/01 22:58:53;;;;;;;6.40;3.08;;;17.80;73.00;;;;;;10153875;28;20047;-57
2021/07/01 23:03:44;;;;;;;4.68;2.83;;;17.80;73.30;;;;;;10157888;28;20047;-56
2021/07/01 23:08:35;;;;;;;5.20;3.13;;;17.70;73.50;;;;;;10163214;28;20032;-58
2021/07/01 23:13:26;;;;;;;4.97;3.20;;;17.70;73.60;;;;;;10141824;28;20491;-55
2021/07/01 23:18:16;;;;;;;5.03;3.30;;;17.60;74.00;;;;;;10153571;28;20041;-57
2021/07/01 23:23:07;;;;;;;5.43;3.40;;;17.50;74.40;;;;;;10142810;28;20033;-55
2021/07/01 23:27:57;;;;;;;7.22;3.63;;;17.40;74.50;;;;;;10164450;28;20036;-57
2021/07/01 23:32:49;;;;;;;5.57;3.33;;;17.40;74.70;;;;;;10160582;28;20028;-56
2021/07/01 23:37:40;;;;;;;6.47;3.88;;;17.40;74.90;;;;;;10155700;28;20101;-56
2021/07/01 23:42:31;;;;;;;5.20;3.00;;;17.40;75.00;;;;;;10151488;28;20055;-54
2021/07/01 23:47:22;;;;;;;5.38;3.33;;;17.40;75.10;;;;;;10156655;28;20059;-54
2021/07/01 23:52:13;;;;;;;6.88;3.05;;;17.30;75.30;;;;;;10162745;28;20247;-55
2021/07/01 23:57:04;;;;;;;5.82;3.92;;;17.20;76.40;;;;;;10156813;28;20024;-54
